sensor_id;sensor_type;location;lat;lon;timestamp;temperature;humidity
75357;HTU21D;63946;51.986;5.930;2023-04-03T00:01:37;5.04;59.39
75357;HTU21D;63946;51.986;5.930;2023-04-03T00:04:06;5.06;59.44
75357;HTU21D;63946;51.986;5.930;2023-04-03T00:06:36;5.03;59.41
75357;HTU21D;63946;51.986;5.930;2023-04-03T00:09:05;5.07;59.37
75357;HTU21D;63946;51.986;5.930;2023-04-03T00:11:33;5.07;59.35
75357;HTU21D;63946;51.986;5.930;2023-04-03T00:14:02;5.09;59.28
75357;HTU21D;63946;51.986;5.930;2023-04-03T00:16:31;5.10;59.29
75357;HTU21D;63946;51.986;5.930;2023-04-03T00:19:00;5.10;59.19
75357;HTU21D;63946;51.986;5.930;2023-04-03T00:21:29;5.08;59.26
75357;HTU21D;63946;51.986;5.930;2023-04-03T00:23:58;5.08;59.28
75357;HTU21D;63946;51.986;5.930;2023-04-03T00:26:29;5.06;59.35
75357;HTU21D;63946;51.986;5.930;2023-04-03T00:29:01;5.08;59.35
75357;HTU21D;63946;51.986;5.930;2023-04-03T00:31:29;5.04;59.38
75357;HTU21D;63946;51.986;5.930;2023-04-03T00:33:58;5.00;59.48
75357;HTU21D;63946;51.986;5.930;2023-04-03T00:36:27;5.00;59.57
75357;HTU21D;63946;51.986;5.930;2023-04-03T00:38:56;4.96;59.72
75357;HTU21D;63946;51.986;5.930;2023-04-03T00:41:25;4.93;59.78
75357;HTU21D;63946;51.986;5.930;2023-04-03T00:43:54;4.90;59.90
75357;HTU21D;63946;51.986;5.930;2023-04-03T00:46:23;4.88;60.05
75357;HTU21D;63946;51.986;5.930;2023-04-03T00:48:51;4.87;60.13
75357;HTU21D;63946;51.986;5.930;2023-04-03T00:51:23;4.84;60.30
75357;HTU21D;63946;51.986;5.930;2023-04-03T00:53:58;4.86;60.36
75357;HTU21D;63946;51.986;5.930;2023-04-03T00:56:29;4.84;60.44
75357;HTU21D;63946;51.986;5.930;2023-04-03T00:59:04;4.81;60.53
75357;HTU21D;63946;51.986;5.930;2023-04-03T01:01:34;4.78;60.64
75357;HTU21D;63946;51.986;5.930;2023-04-03T01:04:04;4.76;60.75
75357;HTU21D;63946;51.986;5.930;2023-04-03T01:06:37;4.74;60.93
75357;HTU21D;63946;51.986;5.930;2023-04-03T01:09:09;4.72;61.03
75357;HTU21D;63946;51.986;5.930;2023-04-03T01:11:38;4.69;61.20
75357;HTU21D;63946;51.986;5.930;2023-04-03T01:14:07;4.67;61.34
75357;HTU21D;63946;51.986;5.930;2023-04-03T01:16:36;4.66;61.40
75357;HTU21D;63946;51.986;5.930;2023-04-03T01:19:12;4.67;61.50
75357;HTU21D;63946;51.986;5.930;2023-04-03T01:22:02;4.67;61.57
75357;HTU21D;63946;51.986;5.930;2023-04-03T01:24:36;4.62;61.70
75357;HTU21D;63946;51.986;5.930;2023-04-03T01:27:10;4.61;61.82
75357;HTU21D;63946;51.986;5.930;2023-04-03T01:29:39;4.58;61.98
75357;HTU21D;63946;51.986;5.930;2023-04-03T01:32:09;4.56;62.06
75357;HTU21D;63946;51.986;5.930;2023-04-03T01:34:38;4.54;62.16
75357;HTU21D;63946;51.986;5.930;2023-04-03T01:37:07;4.54;62.23
75357;HTU21D;63946;51.986;5.930;2023-04-03T01:39:35;4.52;62.37
75357;HTU21D;63946;51.986;5.930;2023-04-03T01:42:04;4.53;62.43
75357;HTU21D;63946;51.986;5.930;2023-04-03T01:44:38;4.53;62.50
75357;HTU21D;63946;51.986;5.930;2023-04-03T01:47:07;4.52;62.66
75357;HTU21D;63946;51.986;5.930;2023-04-03T01:49:38;4.48;62.79
75357;HTU21D;63946;51.986;5.930;2023-04-03T01:52:10;4.46;62.87
75357;HTU21D;63946;51.986;5.930;2023-04-03T01:54:39;4.47;62.90
75357;HTU21D;63946;51.986;5.930;2023-04-03T01:57:08;4.47;62.93
75357;HTU21D;63946;51.986;5.930;2023-04-03T01:59:37;4.46;63.03
75357;HTU21D;63946;51.986;5.930;2023-04-03T02:02:06;4.46;63.13
75357;HTU21D;63946;51.986;5.930;2023-04-03T02:04:35;4.46;63.17
75357;HTU21D;63946;51.986;5.930;2023-04-03T02:07:04;4.43;63.32
75357;HTU21D;63946;51.986;5.930;2023-04-03T02:09:33;4.42;63.45
75357;HTU21D;63946;51.986;5.930;2023-04-03T02:12:03;4.39;63.53
75357;HTU21D;63946;51.986;5.930;2023-04-03T02:14:32;4.37;63.64
75357;HTU21D;63946;51.986;5.930;2023-04-03T02:17:02;4.35;63.76
75357;HTU21D;63946;51.986;5.930;2023-04-03T02:19:35;4.34;63.81
75357;HTU21D;63946;51.986;5.930;2023-04-03T02:22:04;4.31;63.93
75357;HTU21D;63946;51.986;5.930;2023-04-03T02:24:33;4.28;64.06
75357;HTU21D;63946;51.986;5.930;2023-04-03T02:27:02;4.28;64.14
75357;HTU21D;63946;51.986;5.930;2023-04-03T02:29:31;4.24;64.20
75357;HTU21D;63946;51.986;5.930;2023-04-03T02:32:00;4.23;64.23
75357;HTU21D;63946;51.986;5.930;2023-04-03T02:34:30;4.26;64.29
75357;HTU21D;63946;51.986;5.930;2023-04-03T02:37:01;4.24;64.27
75357;HTU21D;63946;51.986;5.930;2023-04-03T02:39:30;4.20;64.40
75357;HTU21D;63946;51.986;5.930;2023-04-03T02:41:59;4.18;64.50
75357;HTU21D;63946;51.986;5.930;2023-04-03T02:44:28;4.20;64.52
75357;HTU21D;63946;51.986;5.930;2023-04-03T02:46:57;4.17;64.64
75357;HTU21D;63946;51.986;5.930;2023-04-03T02:49:31;4.10;64.79
75357;HTU21D;63946;51.986;5.930;2023-04-03T02:52:00;4.08;64.89
75357;HTU21D;63946;51.986;5.930;2023-04-03T02:54:29;4.06;64.98
75357;HTU21D;63946;51.986;5.930;2023-04-03T02:57:02;4.06;64.98
75357;HTU21D;63946;51.986;5.930;2023-04-03T02:59:31;4.05;65.01
75357;HTU21D;63946;51.986;5.930;2023-04-03T03:02:00;4.04;65.10
75357;HTU21D;63946;51.986;5.930;2023-04-03T03:04:29;4.02;65.21
75357;HTU21D;63946;51.986;5.930;2023-04-03T03:06:57;4.01;65.27
75357;HTU21D;63946;51.986;5.930;2023-04-03T03:09:31;4.00;65.34
75357;HTU21D;63946;51.986;5.930;2023-04-03T03:12:00;3.97;65.37
75357;HTU21D;63946;51.986;5.930;2023-04-03T03:14:29;3.94;65.44
75357;HTU21D;63946;51.986;5.930;2023-04-03T03:16:58;3.93;65.42
75357;HTU21D;63946;51.986;5.930;2023-04-03T03:19:27;3.91;65.53
75357;HTU21D;63946;51.986;5.930;2023-04-03T03:21:56;3.89;65.56
75357;HTU21D;63946;51.986;5.930;2023-04-03T03:24:25;3.89;65.52
75357;HTU21D;63946;51.986;5.930;2023-04-03T03:26:54;3.86;65.62
75357;HTU21D;63946;51.986;5.930;2023-04-03T03:29:23;3.82;65.75
75357;HTU21D;63946;51.986;5.930;2023-04-03T03:31:52;3.79;65.75
75357;HTU21D;63946;51.986;5.930;2023-04-03T03:34:20;3.78;65.74
75357;HTU21D;63946;51.986;5.930;2023-04-03T03:36:49;3.76;65.85
75357;HTU21D;63946;51.986;5.930;2023-04-03T03:39:18;3.75;65.87
75357;HTU21D;63946;51.986;5.930;2023-04-03T03:41:47;3.73;65.89
75357;HTU21D;63946;51.986;5.930;2023-04-03T03:44:16;3.69;65.96
75357;HTU21D;63946;51.986;5.930;2023-04-03T03:46:45;3.68;66.03
75357;HTU21D;63946;51.986;5.930;2023-04-03T03:49:14;3.68;66.00
75357;HTU21D;63946;51.986;5.930;2023-04-03T03:51:43;3.64;66.00
75357;HTU21D;63946;51.986;5.930;2023-04-03T03:54:13;3.61;66.09
75357;HTU21D;63946;51.986;5.930;2023-04-03T03:56:41;3.62;66.07
75357;HTU21D;63946;51.986;5.930;2023-04-03T03:59:13;3.61;66.05
75357;HTU21D;63946;51.986;5.930;2023-04-03T04:01:42;3.60;66.03
75357;HTU21D;63946;51.986;5.930;2023-04-03T04:04:12;3.56;66.10
75357;HTU21D;63946;51.986;5.930;2023-04-03T04:06:41;3.49;66.24
75357;HTU21D;63946;51.986;5.930;2023-04-03T04:09:10;3.48;66.33
75357;HTU21D;63946;51.986;5.930;2023-04-03T04:11:39;3.46;66.27
75357;HTU21D;63946;51.986;5.930;2023-04-03T04:14:11;3.45;66.30
75357;HTU21D;63946;51.986;5.930;2023-04-03T04:16:42;3.43;66.25
75357;HTU21D;63946;51.986;5.930;2023-04-03T04:19:15;3.41;66.27
75357;HTU21D;63946;51.986;5.930;2023-04-03T04:21:45;3.35;66.36
75357;HTU21D;63946;51.986;5.930;2023-04-03T04:24:14;3.35;66.40
75357;HTU21D;63946;51.986;5.930;2023-04-03T04:26:44;3.34;66.49
75357;HTU21D;63946;51.986;5.930;2023-04-03T04:29:15;3.31;66.62
75357;HTU21D;63946;51.986;5.930;2023-04-03T04:31:47;3.27;66.79
75357;HTU21D;63946;51.986;5.930;2023-04-03T04:34:18;3.24;66.91
75357;HTU21D;63946;51.986;5.930;2023-04-03T04:36:47;3.23;66.91
75357;HTU21D;63946;51.986;5.930;2023-04-03T04:39:19;3.20;66.92
75357;HTU21D;63946;51.986;5.930;2023-04-03T04:41:48;3.19;66.91
75357;HTU21D;63946;51.986;5.930;2023-04-03T04:44:17;3.18;66.95
75357;HTU21D;63946;51.986;5.930;2023-04-03T04:46:46;3.13;67.01
75357;HTU21D;63946;51.986;5.930;2023-04-03T04:49:15;3.10;67.03
75357;HTU21D;63946;51.986;5.930;2023-04-03T04:51:44;3.05;66.99
75357;HTU21D;63946;51.986;5.930;2023-04-03T04:54:13;3.05;66.93
75357;HTU21D;63946;51.986;5.930;2023-04-03T04:56:49;3.05;66.82
75357;HTU21D;63946;51.986;5.930;2023-04-03T04:59:19;3.01;66.76
75357;HTU21D;63946;51.986;5.930;2023-04-03T05:01:49;2.99;66.76
75357;HTU21D;63946;51.986;5.930;2023-04-03T05:04:18;2.97;66.72
75357;HTU21D;63946;51.986;5.930;2023-04-03T05:06:51;2.97;66.68
75357;HTU21D;63946;51.986;5.930;2023-04-03T05:09:23;2.97;66.66
75357;HTU21D;63946;51.986;5.930;2023-04-03T05:11:55;2.97;66.64
75357;HTU21D;63946;51.986;5.930;2023-04-03T05:14:27;2.96;66.56
75357;HTU21D;63946;51.986;5.930;2023-04-03T05:17:01;2.96;66.47
75357;HTU21D;63946;51.986;5.930;2023-04-03T05:19:33;2.94;66.32
75357;HTU21D;63946;51.986;5.930;2023-04-03T05:22:03;2.91;66.30
75357;HTU21D;63946;51.986;5.930;2023-04-03T05:24:34;2.91;66.27
75357;HTU21D;63946;51.986;5.930;2023-04-03T05:27:03;2.95;66.12
75357;HTU21D;63946;51.986;5.930;2023-04-03T05:29:36;2.95;66.07
75357;HTU21D;63946;51.986;5.930;2023-04-03T05:32:10;2.95;66.05
75357;HTU21D;63946;51.986;5.930;2023-04-03T05:34:40;2.93;66.07
75357;HTU21D;63946;51.986;5.930;2023-04-03T05:37:08;2.91;66.06
75357;HTU21D;63946;51.986;5.930;2023-04-03T05:39:38;2.93;65.94
75357;HTU21D;63946;51.986;5.930;2023-04-03T05:42:07;2.93;65.87
75357;HTU21D;63946;51.986;5.930;2023-04-03T05:44:38;2.95;65.84
75357;HTU21D;63946;51.986;5.930;2023-04-03T05:47:06;2.95;65.69
75357;HTU21D;63946;51.986;5.930;2023-04-03T05:49:36;2.96;65.56
75357;HTU21D;63946;51.986;5.930;2023-04-03T05:52:27;2.97;65.54
75357;HTU21D;63946;51.986;5.930;2023-04-03T05:54:57;2.95;65.49
75357;HTU21D;63946;51.986;5.930;2023-04-03T05:57:29;2.98;65.57
75357;HTU21D;63946;51.986;5.930;2023-04-03T05:59:58;3.02;65.53
75357;HTU21D;63946;51.986;5.930;2023-04-03T06:02:26;3.02;65.54
75357;HTU21D;63946;51.986;5.930;2023-04-03T06:04:57;3.01;65.63
75357;HTU21D;63946;51.986;5.930;2023-04-03T06:07:26;3.04;65.60
75357;HTU21D;63946;51.986;5.930;2023-04-03T06:09:56;3.13;65.46
75357;HTU21D;63946;51.986;5.930;2023-04-03T06:12:26;3.12;65.39
75357;HTU21D;63946;51.986;5.930;2023-04-03T06:14:56;3.15;65.30
75357;HTU21D;63946;51.986;5.930;2023-04-03T06:17:25;3.13;65.31
75357;HTU21D;63946;51.986;5.930;2023-04-03T06:19:54;3.10;65.30
75357;HTU21D;63946;51.986;5.930;2023-04-03T06:22:24;3.13;65.24
75357;HTU21D;63946;51.986;5.930;2023-04-03T06:24:59;3.18;65.08
75357;HTU21D;63946;51.986;5.930;2023-04-03T06:27:27;3.25;64.95
75357;HTU21D;63946;51.986;5.930;2023-04-03T06:29:59;3.31;64.80
75357;HTU21D;63946;51.986;5.930;2023-04-03T06:32:28;3.38;64.66
75357;HTU21D;63946;51.986;5.930;2023-04-03T06:34:56;3.45;64.44
75357;HTU21D;63946;51.986;5.930;2023-04-03T06:37:26;3.44;64.30
75357;HTU21D;63946;51.986;5.930;2023-04-03T06:39:56;3.47;64.08
75357;HTU21D;63946;51.986;5.930;2023-04-03T06:42:26;3.46;63.89
75357;HTU21D;63946;51.986;5.930;2023-04-03T06:45:06;3.49;63.80
75357;HTU21D;63946;51.986;5.930;2023-04-03T06:47:37;3.55;63.77
75357;HTU21D;63946;51.986;5.930;2023-04-03T06:50:09;3.63;63.66
75357;HTU21D;63946;51.986;5.930;2023-04-03T06:52:40;3.65;63.37
75357;HTU21D;63946;51.986;5.930;2023-04-03T06:55:10;3.68;63.12
75357;HTU21D;63946;51.986;5.930;2023-04-03T06:57:38;3.70;63.10
75357;HTU21D;63946;51.986;5.930;2023-04-03T07:00:08;3.76;62.88
75357;HTU21D;63946;51.986;5.930;2023-04-03T07:02:37;3.77;62.95
75357;HTU21D;63946;51.986;5.930;2023-04-03T07:05:06;3.80;62.71
75357;HTU21D;63946;51.986;5.930;2023-04-03T07:07:36;3.83;62.47
75357;HTU21D;63946;51.986;5.930;2023-04-03T07:10:05;3.80;62.13
75357;HTU21D;63946;51.986;5.930;2023-04-03T07:12:35;3.80;61.98
75357;HTU21D;63946;51.986;5.930;2023-04-03T07:15:05;3.87;61.88
75357;HTU21D;63946;51.986;5.930;2023-04-03T07:17:34;3.89;61.62
75357;HTU21D;63946;51.986;5.930;2023-04-03T07:20:06;3.99;61.53
75357;HTU21D;63946;51.986;5.930;2023-04-03T07:22:35;4.05;61.09
75357;HTU21D;63946;51.986;5.930;2023-04-03T07:25:07;4.08;61.09
75357;HTU21D;63946;51.986;5.930;2023-04-03T07:27:36;4.24;60.88
75357;HTU21D;63946;51.986;5.930;2023-04-03T07:30:06;4.42;60.42
75357;HTU21D;63946;51.986;5.930;2023-04-03T07:32:35;4.50;59.99
75357;HTU21D;63946;51.986;5.930;2023-04-03T07:35:04;4.62;59.80
75357;HTU21D;63946;51.986;5.930;2023-04-03T07:37:34;4.73;59.42
75357;HTU21D;63946;51.986;5.930;2023-04-03T07:40:03;4.73;58.81
75357;HTU21D;63946;51.986;5.930;2023-04-03T07:42:36;4.75;58.80
75357;HTU21D;63946;51.986;5.930;2023-04-03T07:45:05;4.78;58.28
75357;HTU21D;63946;51.986;5.930;2023-04-03T07:47:40;4.89;58.19
75357;HTU21D;63946;51.986;5.930;2023-04-03T07:50:09;5.05;57.67
75357;HTU21D;63946;51.986;5.930;2023-04-03T07:52:38;5.11;57.05
75357;HTU21D;63946;51.986;5.930;2023-04-03T07:55:07;5.13;56.68
75357;HTU21D;63946;51.986;5.930;2023-04-03T07:57:37;5.20;56.74
75357;HTU21D;63946;51.986;5.930;2023-04-03T08:00:07;5.26;56.37
75357;HTU21D;63946;51.986;5.930;2023-04-03T08:02:40;5.25;56.00
75357;HTU21D;63946;51.986;5.930;2023-04-03T08:05:10;5.31;55.42
75357;HTU21D;63946;51.986;5.930;2023-04-03T08:07:39;5.33;55.22
75357;HTU21D;63946;51.986;5.930;2023-04-03T08:10:08;5.42;55.10
75357;HTU21D;63946;51.986;5.930;2023-04-03T08:12:40;5.52;54.36
75357;HTU21D;63946;51.986;5.930;2023-04-03T08:15:10;5.62;53.97
75357;HTU21D;63946;51.986;5.930;2023-04-03T08:17:39;5.65;52.73
75357;HTU21D;63946;51.986;5.930;2023-04-03T08:20:09;5.64;52.86
75357;HTU21D;63946;51.986;5.930;2023-04-03T08:22:40;5.79;52.82
75357;HTU21D;63946;51.986;5.930;2023-04-03T08:25:27;5.93;52.30
75357;HTU21D;63946;51.986;5.930;2023-04-03T08:27:58;5.99;51.88
75357;HTU21D;63946;51.986;5.930;2023-04-03T08:30:27;6.08;51.59
75357;HTU21D;63946;51.986;5.930;2023-04-03T08:33:01;6.10;50.18
75357;HTU21D;63946;51.986;5.930;2023-04-03T08:35:30;6.11;50.14
75357;HTU21D;63946;51.986;5.930;2023-04-03T08:37:59;6.24;50.43
75357;HTU21D;63946;51.986;5.930;2023-04-03T08:40:30;6.39;50.24
75357;HTU21D;63946;51.986;5.930;2023-04-03T08:43:04;6.44;48.95
75357;HTU21D;63946;51.986;5.930;2023-04-03T08:45:55;6.40;47.98
75357;HTU21D;63946;51.986;5.930;2023-04-03T08:48:27;6.52;47.74
75357;HTU21D;63946;51.986;5.930;2023-04-03T08:51:04;6.64;46.93
75357;HTU21D;63946;51.986;5.930;2023-04-03T08:53:41;6.79;46.37
75357;HTU21D;63946;51.986;5.930;2023-04-03T08:56:13;6.95;46.18
75357;HTU21D;63946;51.986;5.930;2023-04-03T08:58:56;7.12;45.61
75357;HTU21D;63946;51.986;5.930;2023-04-03T09:01:34;7.23;44.61
75357;HTU21D;63946;51.986;5.930;2023-04-03T09:04:11;7.26;43.64
75357;HTU21D;63946;51.986;5.930;2023-04-03T09:06:46;7.26;43.35
75357;HTU21D;63946;51.986;5.930;2023-04-03T09:09:36;7.30;42.97
75357;HTU21D;63946;51.986;5.930;2023-04-03T09:12:27;7.39;42.07
75357;HTU21D;63946;51.986;5.930;2023-04-03T09:15:20;7.56;41.20
75357;HTU21D;63946;51.986;5.930;2023-04-03T09:18:05;7.60;40.11
75357;HTU21D;63946;51.986;5.930;2023-04-03T09:21:08;7.64;39.19
75357;HTU21D;63946;51.986;5.930;2023-04-03T09:23:46;7.71;38.35
75357;HTU21D;63946;51.986;5.930;2023-04-03T09:26:26;7.84;38.53
75357;HTU21D;63946;51.986;5.930;2023-04-03T09:29:02;8.00;37.72
75357;HTU21D;63946;51.986;5.930;2023-04-03T09:31:42;8.16;37.33
75357;HTU21D;63946;51.986;5.930;2023-04-03T09:34:24;8.28;37.07
75357;HTU21D;63946;51.986;5.930;2023-04-03T09:37:00;8.23;36.42
75357;HTU21D;63946;51.986;5.930;2023-04-03T09:39:48;8.29;36.28
75357;HTU21D;63946;51.986;5.930;2023-04-03T09:42:22;8.34;35.87
75357;HTU21D;63946;51.986;5.930;2023-04-03T09:45:00;8.31;33.57
75357;HTU21D;63946;51.986;5.930;2023-04-03T09:47:34;8.27;34.31
75357;HTU21D;63946;51.986;5.930;2023-04-03T09:52:45;8.59;35.50
75357;HTU21D;63946;51.986;5.930;2023-04-03T09:55:21;8.70;34.34
75357;HTU21D;63946;51.986;5.930;2023-04-03T09:57:54;8.65;33.48
75357;HTU21D;63946;51.986;5.930;2023-04-03T10:00:30;8.63;33.41
75357;HTU21D;63946;51.986;5.930;2023-04-03T10:03:00;8.80;33.66
75357;HTU21D;63946;51.986;5.930;2023-04-03T10:05:38;8.98;33.63
75357;HTU21D;63946;51.986;5.930;2023-04-03T10:10:45;9.17;32.96
75357;HTU21D;63946;51.986;5.930;2023-04-03T10:13:19;9.11;32.70
75357;HTU21D;63946;51.986;5.930;2023-04-03T10:16:01;8.98;32.69
75357;HTU21D;63946;51.986;5.930;2023-04-03T10:18:44;9.03;32.79
75357;HTU21D;63946;51.986;5.930;2023-04-03T10:24:25;9.49;33.40
75357;HTU21D;63946;51.986;5.930;2023-04-03T10:27:08;9.49;33.35
75357;HTU21D;63946;51.986;5.930;2023-04-03T10:29:43;9.41;32.46
75357;HTU21D;63946;51.986;5.930;2023-04-03T10:38:24;9.83;33.38
75357;HTU21D;63946;51.986;5.930;2023-04-03T10:41:07;9.95;32.85
75357;HTU21D;63946;51.986;5.930;2023-04-03T10:46:55;9.74;33.28
75357;HTU21D;63946;51.986;5.930;2023-04-03T10:54:49;10.24;33.39
75357;HTU21D;63946;51.986;5.930;2023-04-03T10:57:22;10.06;32.83
75357;HTU21D;63946;51.986;5.930;2023-04-03T10:59:59;10.08;33.34
75357;HTU21D;63946;51.986;5.930;2023-04-03T11:02:45;10.37;32.70
75357;HTU21D;63946;51.986;5.930;2023-04-03T11:05:37;10.56;33.50
75357;HTU21D;63946;51.986;5.930;2023-04-03T11:11:02;10.74;31.88
75357;HTU21D;63946;51.986;5.930;2023-04-03T11:16:26;10.48;31.14
75357;HTU21D;63946;51.986;5.930;2023-04-03T11:19:20;10.45;30.67
75357;HTU21D;63946;51.986;5.930;2023-04-03T11:22:09;10.62;30.03
75357;HTU21D;63946;51.986;5.930;2023-04-03T11:24:42;10.73;31.64
75357;HTU21D;63946;51.986;5.930;2023-04-03T11:27:17;10.86;30.41
75357;HTU21D;63946;51.986;5.930;2023-04-03T11:29:52;10.83;30.60
75357;HTU21D;63946;51.986;5.930;2023-04-03T11:35:02;11.01;30.52
75357;HTU21D;63946;51.986;5.930;2023-04-03T11:37:39;11.01;29.81
75357;HTU21D;63946;51.986;5.930;2023-04-03T11:45:49;10.99;30.01
75357;HTU21D;63946;51.986;5.930;2023-04-03T11:50:51;11.01;30.77
75357;HTU21D;63946;51.986;5.930;2023-04-03T11:53:32;11.11;30.25
75357;HTU21D;63946;51.986;5.930;2023-04-03T11:56:03;11.18;30.61
75357;HTU21D;63946;51.986;5.930;2023-04-03T11:58:33;11.17;29.71
75357;HTU21D;63946;51.986;5.930;2023-04-03T12:01:08;11.19;30.20
75357;HTU21D;63946;51.986;5.930;2023-04-03T12:08:46;10.74;30.00
75357;HTU21D;63946;51.986;5.930;2023-04-03T12:11:24;10.87;29.99
75357;HTU21D;63946;51.986;5.930;2023-04-03T12:16:25;10.85;30.92
75357;HTU21D;63946;51.986;5.930;2023-04-03T12:18:59;10.98;30.82
75357;HTU21D;63946;51.986;5.930;2023-04-03T12:43:51;11.14;30.39
75357;HTU21D;63946;51.986;5.930;2023-04-03T12:46:37;11.19;30.79
75357;HTU21D;63946;51.986;5.930;2023-04-03T12:51:57;11.05;30.22
75357;HTU21D;63946;51.986;5.930;2023-04-03T12:54:38;10.90;30.01
75357;HTU21D;63946;51.986;5.930;2023-04-03T12:57:18;10.86;29.70
75357;HTU21D;63946;51.986;5.930;2023-04-03T12:59:48;10.85;30.12
75357;HTU21D;63946;51.986;5.930;2023-04-03T13:02:28;10.87;30.23
75357;HTU21D;63946;51.986;5.930;2023-04-03T13:05:06;10.82;30.42
75357;HTU21D;63946;51.986;5.930;2023-04-03T13:07:39;10.99;30.64
75357;HTU21D;63946;51.986;5.930;2023-04-03T13:15:25;11.02;30.12
75357;HTU21D;63946;51.986;5.930;2023-04-03T13:17:56;11.12;30.66
75357;HTU21D;63946;51.986;5.930;2023-04-03T13:22:58;11.26;29.77
75357;HTU21D;63946;51.986;5.930;2023-04-03T13:25:32;10.89;29.72
75357;HTU21D;63946;51.986;5.930;2023-04-03T13:28:04;10.89;30.21
75357;HTU21D;63946;51.986;5.930;2023-04-03T13:30:37;10.85;29.94
75357;HTU21D;63946;51.986;5.930;2023-04-03T13:33:21;10.80;29.94
75357;HTU21D;63946;51.986;5.930;2023-04-03T13:36:00;10.87;30.87
75357;HTU21D;63946;51.986;5.930;2023-04-03T13:38:32;11.08;30.42
75357;HTU21D;63946;51.986;5.930;2023-04-03T13:41:23;11.09;30.31
75357;HTU21D;63946;51.986;5.930;2023-04-03T13:43:52;11.07;30.21
75357;HTU21D;63946;51.986;5.930;2023-04-03T13:46:25;11.05;30.50
75357;HTU21D;63946;51.986;5.930;2023-04-03T13:48:55;11.04;30.61
75357;HTU21D;63946;51.986;5.930;2023-04-03T13:51:29;11.03;30.73
75357;HTU21D;63946;51.986;5.930;2023-04-03T13:54:00;11.14;31.59
75357;HTU21D;63946;51.986;5.930;2023-04-03T13:56:38;11.36;31.94
75357;HTU21D;63946;51.986;5.930;2023-04-03T14:04:26;11.34;31.38
75357;HTU21D;63946;51.986;5.930;2023-04-03T14:06:59;11.32;31.46
75357;HTU21D;63946;51.986;5.930;2023-04-03T14:09:28;11.23;31.27
75357;HTU21D;63946;51.986;5.930;2023-04-03T14:12:04;11.37;31.43
75357;HTU21D;63946;51.986;5.930;2023-04-03T14:14:35;11.42;30.81
75357;HTU21D;63946;51.986;5.930;2023-04-03T14:17:10;11.34;31.09
75357;HTU21D;63946;51.986;5.930;2023-04-03T14:19:41;11.28;30.81
75357;HTU21D;63946;51.986;5.930;2023-04-03T14:22:18;11.23;31.23
75357;HTU21D;63946;51.986;5.930;2023-04-03T14:24:49;11.15;31.48
75357;HTU21D;63946;51.986;5.930;2023-04-03T14:27:22;11.18;31.70
75357;HTU21D;63946;51.986;5.930;2023-04-03T14:29:53;11.20;31.69
75357;HTU21D;63946;51.986;5.930;2023-04-03T14:32:23;11.20;31.96
75357;HTU21D;63946;51.986;5.930;2023-04-03T14:34:52;11.32;32.21
75357;HTU21D;63946;51.986;5.930;2023-04-03T14:37:24;11.27;31.67
75357;HTU21D;63946;51.986;5.930;2023-04-03T14:39:54;11.18;32.04
75357;HTU21D;63946;51.986;5.930;2023-04-03T14:42:27;11.18;32.32
75357;HTU21D;63946;51.986;5.930;2023-04-03T14:45:00;11.31;32.44
75357;HTU21D;63946;51.986;5.930;2023-04-03T14:47:36;11.43;32.57
75357;HTU21D;63946;51.986;5.930;2023-04-03T14:50:11;11.42;32.41
75357;HTU21D;63946;51.986;5.930;2023-04-03T14:52:40;11.44;32.82
75357;HTU21D;63946;51.986;5.930;2023-04-03T14:55:11;11.39;33.11
75357;HTU21D;63946;51.986;5.930;2023-04-03T14:57:40;11.29;33.22
75357;HTU21D;63946;51.986;5.930;2023-04-03T15:00:17;11.39;33.73
75357;HTU21D;63946;51.986;5.930;2023-04-03T15:02:47;11.41;33.19
75357;HTU21D;63946;51.986;5.930;2023-04-03T15:05:19;11.32;33.05
75357;HTU21D;63946;51.986;5.930;2023-04-03T15:07:57;11.23;33.18
75357;HTU21D;63946;51.986;5.930;2023-04-03T15:10:30;11.12;34.05
75357;HTU21D;63946;51.986;5.930;2023-04-03T15:13:00;11.15;33.70
75357;HTU21D;63946;51.986;5.930;2023-04-03T15:15:32;10.97;33.34
75357;HTU21D;63946;51.986;5.930;2023-04-03T15:18:02;10.87;33.44
75357;HTU21D;63946;51.986;5.930;2023-04-03T15:20:36;10.68;33.35
75357;HTU21D;63946;51.986;5.930;2023-04-03T15:23:05;10.68;33.70
75357;HTU21D;63946;51.986;5.930;2023-04-03T15:25:36;10.80;33.58
75357;HTU21D;63946;51.986;5.930;2023-04-03T15:28:09;10.79;33.39
75357;HTU21D;63946;51.986;5.930;2023-04-03T15:30:41;10.74;33.24
75357;HTU21D;63946;51.986;5.930;2023-04-03T15:33:14;10.64;33.57
75357;HTU21D;63946;51.986;5.930;2023-04-03T15:35:44;10.54;33.65
75357;HTU21D;63946;51.986;5.930;2023-04-03T15:38:13;10.52;33.98
75357;HTU21D;63946;51.986;5.930;2023-04-03T15:40:42;10.58;34.15
75357;HTU21D;63946;51.986;5.930;2023-04-03T15:43:13;10.66;34.12
75357;HTU21D;63946;51.986;5.930;2023-04-03T15:45:44;10.56;34.08
75357;HTU21D;63946;51.986;5.930;2023-04-03T15:48:17;10.50;34.50
75357;HTU21D;63946;51.986;5.930;2023-04-03T15:50:46;10.59;34.46
75357;HTU21D;63946;51.986;5.930;2023-04-03T15:53:17;10.46;34.10
75357;HTU21D;63946;51.986;5.930;2023-04-03T15:55:46;10.43;33.93
75357;HTU21D;63946;51.986;5.930;2023-04-03T15:58:15;10.30;33.92
75357;HTU21D;63946;51.986;5.930;2023-04-03T16:00:44;10.16;34.18
75357;HTU21D;63946;51.986;5.930;2023-04-03T16:03:18;10.16;34.67
75357;HTU21D;63946;51.986;5.930;2023-04-03T16:05:48;10.15;34.85
75357;HTU21D;63946;51.986;5.930;2023-04-03T16:08:18;10.19;34.81
75357;HTU21D;63946;51.986;5.930;2023-04-03T16:10:53;10.20;35.02
75357;HTU21D;63946;51.986;5.930;2023-04-03T16:13:22;10.21;35.00
75357;HTU21D;63946;51.986;5.930;2023-04-03T16:15:51;10.14;35.23
75357;HTU21D;63946;51.986;5.930;2023-04-03T16:18:20;10.11;35.29
75357;HTU21D;63946;51.986;5.930;2023-04-03T16:20:49;10.10;35.27
75357;HTU21D;63946;51.986;5.930;2023-04-03T16:23:18;10.10;35.40
75357;HTU21D;63946;51.986;5.930;2023-04-03T16:25:47;10.10;35.69
75357;HTU21D;63946;51.986;5.930;2023-04-03T16:28:17;10.11;35.35
75357;HTU21D;63946;51.986;5.930;2023-04-03T16:30:47;10.01;35.42
75357;HTU21D;63946;51.986;5.930;2023-04-03T16:33:16;9.95;35.68
75357;HTU21D;63946;51.986;5.930;2023-04-03T16:35:48;9.94;36.24
75357;HTU21D;63946;51.986;5.930;2023-04-03T16:38:18;9.90;36.10
75357;HTU21D;63946;51.986;5.930;2023-04-03T16:40:48;9.83;36.27
75357;HTU21D;63946;51.986;5.930;2023-04-03T16:43:18;9.80;36.63
75357;HTU21D;63946;51.986;5.930;2023-04-03T16:45:48;9.77;36.92
75357;HTU21D;63946;51.986;5.930;2023-04-03T16:48:17;9.70;36.86
75357;HTU21D;63946;51.986;5.930;2023-04-03T16:50:47;9.62;37.11
75357;HTU21D;63946;51.986;5.930;2023-04-03T16:53:20;9.60;37.08
75357;HTU21D;63946;51.986;5.930;2023-04-03T16:55:50;9.55;36.69
75357;HTU21D;63946;51.986;5.930;2023-04-03T16:58:19;9.47;36.71
75357;HTU21D;63946;51.986;5.930;2023-04-03T17:00:49;9.32;36.47
75357;HTU21D;63946;51.986;5.930;2023-04-03T17:03:21;9.23;36.91
75357;HTU21D;63946;51.986;5.930;2023-04-03T17:05:51;9.19;36.95
75357;HTU21D;63946;51.986;5.930;2023-04-03T17:08:22;9.15;37.15
75357;HTU21D;63946;51.986;5.930;2023-04-03T17:10:52;9.12;37.54
75357;HTU21D;63946;51.986;5.930;2023-04-03T17:13:21;9.12;37.66
75357;HTU21D;63946;51.986;5.930;2023-04-03T17:15:57;9.08;37.66
75357;HTU21D;63946;51.986;5.930;2023-04-03T17:18:26;9.04;37.66
75357;HTU21D;63946;51.986;5.930;2023-04-03T17:20:56;9.29;37.51
75357;HTU21D;63946;51.986;5.930;2023-04-03T17:23:25;10.15;36.06